sensor_id;sensor_type;location;lat;lon;timestamp;temperature;humidity
16655;DHT22;8441;51.344;7.022;2023-05-18T00:01:30;6.40;99.90
16655;DHT22;8441;51.344;7.022;2023-05-18T00:03:57;6.30;99.90
16655;DHT22;8441;51.344;7.022;2023-05-18T00:06:24;6.30;99.90
16655;DHT22;8441;51.344;7.022;2023-05-18T00:08:52;6.30;99.90
16655;DHT22;8441;51.344;7.022;2023-05-18T00:11:20;6.30;99.90
16655;DHT22;8441;51.344;7.022;2023-05-18T00:13:47;6.20;99.90
16655;DHT22;8441;51.344;7.022;2023-05-18T00:16:16;6.10;99.90
16655;DHT22;8441;51.344;7.022;2023-05-18T00:18:43;6.10;99.90
16655;DHT22;8441;51.344;7.022;2023-05-18T00:21:11;6.00;99.90
16655;DHT22;8441;51.344;7.022;2023-05-18T00:23:40;6.00;99.90
16655;DHT22;8441;51.344;7.022;2023-05-18T00:26:14;5.90;99.90
16655;DHT22;8441;51.344;7.022;2023-05-18T00:28:41;5.90;99.90
16655;DHT22;8441;51.344;7.022;2023-05-18T00:31:08;5.80;99.90
16655;DHT22;8441;51.344;7.022;2023-05-18T00:33:37;5.80;99.90
16655;DHT22;8441;51.344;7.022;2023-05-18T00:36:05;5.80;99.90
16655;DHT22;8441;51.344;7.022;2023-05-18T00:38:32;5.70;99.90
16655;DHT22;8441;51.344;7.022;2023-05-18T00:41:00;5.70;99.90
16655;DHT22;8441;51.344;7.022;2023-05-18T00:43:27;5.70;99.90
16655;DHT22;8441;51.344;7.022;2023-05-18T00:45:54;5.70;99.90
16655;DHT22;8441;51.344;7.022;2023-05-18T00:48:21;5.60;99.90
16655;DHT22;8441;51.344;7.022;2023-05-18T00:50:50;5.50;99.90
16655;DHT22;8441;51.344;7.022;2023-05-18T00:53:17;5.50;99.90
16655;DHT22;8441;51.344;7.022;2023-05-18T00:55:44;5.50;99.90
16655;DHT22;8441;51.344;7.022;2023-05-18T00:58:12;5.50;99.90
16655;DHT22;8441;51.344;7.022;2023-05-18T01:00:39;5.40;99.90
16655;DHT22;8441;51.344;7.022;2023-05-18T01:03:06;5.40;99.90
16655;DHT22;8441;51.344;7.022;2023-05-18T01:05:35;5.40;99.90
16655;DHT22;8441;51.344;7.022;2023-05-18T01:08:04;5.40;99.90
16655;DHT22;8441;51.344;7.022;2023-05-18T01:10:34;5.30;99.90
16655;DHT22;8441;51.344;7.022;2023-05-18T01:13:05;5.40;99.90
16655;DHT22;8441;51.344;7.022;2023-05-18T01:15:38;5.30;99.90
16655;DHT22;8441;51.344;7.022;2023-05-18T01:18:10;5.30;99.90
16655;DHT22;8441;51.344;7.022;2023-05-18T01:20:45;5.20;99.90
16655;DHT22;8441;51.344;7.022;2023-05-18T01:23:44;5.30;99.90
16655;DHT22;8441;51.344;7.022;2023-05-18T01:26:15;5.20;99.90
16655;DHT22;8441;51.344;7.022;2023-05-18T01:28:49;5.10;99.90
16655;DHT22;8441;51.344;7.022;2023-05-18T01:31:17;5.10;99.90
16655;DHT22;8441;51.344;7.022;2023-05-18T01:33:45;5.10;99.90
16655;DHT22;8441;51.344;7.022;2023-05-18T01:36:12;5.10;99.90
16655;DHT22;8441;51.344;7.022;2023-05-18T01:38:40;5.00;99.90
16655;DHT22;8441;51.344;7.022;2023-05-18T01:41:38;5.00;99.90
16655;DHT22;8441;51.344;7.022;2023-05-18T01:44:11;5.00;99.90
16655;DHT22;8441;51.344;7.022;2023-05-18T01:46:46;5.00;99.90
16655;DHT22;8441;51.344;7.022;2023-05-18T01:49:22;4.90;99.90
16655;DHT22;8441;51.344;7.022;2023-05-18T01:51:53;4.90;99.90
16655;DHT22;8441;51.344;7.022;2023-05-18T01:54:23;4.90;99.90
16655;DHT22;8441;51.344;7.022;2023-05-18T01:56:54;4.90;99.90
16655;DHT22;8441;51.344;7.022;2023-05-18T01:59:22;4.90;99.90
16655;DHT22;8441;51.344;7.022;2023-05-18T02:01:50;4.90;99.90
16655;DHT22;8441;51.344;7.022;2023-05-18T02:04:17;4.90;99.90
16655;DHT22;8441;51.344;7.022;2023-05-18T02:06:45;4.90;99.90
16655;DHT22;8441;51.344;7.022;2023-05-18T02:09:12;4.80;99.90
16655;DHT22;8441;51.344;7.022;2023-05-18T02:11:39;4.80;99.90
16655;DHT22;8441;51.344;7.022;2023-05-18T02:14:07;4.80;99.90
16655;DHT22;8441;51.344;7.022;2023-05-18T02:16:35;4.80;99.90
16655;DHT22;8441;51.344;7.022;2023-05-18T02:19:02;4.80;99.90
16655;DHT22;8441;51.344;7.022;2023-05-18T02:21:29;4.80;99.90
16655;DHT22;8441;51.344;7.022;2023-05-18T02:23:59;4.80;99.90
16655;DHT22;8441;51.344;7.022;2023-05-18T02:26:26;4.80;99.90
16655;DHT22;8441;51.344;7.022;2023-05-18T02:28:53;4.70;99.90
16655;DHT22;8441;51.344;7.022;2023-05-18T02:31:22;4.80;99.90
16655;DHT22;8441;51.344;7.022;2023-05-18T02:33:49;4.80;99.90
16655;DHT22;8441;51.344;7.022;2023-05-18T02:36:16;4.70;99.90
16655;DHT22;8441;51.344;7.022;2023-05-18T02:38:47;4.70;99.90
16655;DHT22;8441;51.344;7.022;2023-05-18T02:41:14;4.70;99.90
16655;DHT22;8441;51.344;7.022;2023-05-18T02:43:41;4.70;99.90
16655;DHT22;8441;51.344;7.022;2023-05-18T02:46:08;4.60;99.90
16655;DHT22;8441;51.344;7.022;2023-05-18T02:48:37;4.60;99.90
16655;DHT22;8441;51.344;7.022;2023-05-18T02:51:04;4.60;99.90
16655;DHT22;8441;51.344;7.022;2023-05-18T02:53:32;4.50;99.90
16655;DHT22;8441;51.344;7.022;2023-05-18T02:55:59;4.50;99.90
16655;DHT22;8441;51.344;7.022;2023-05-18T02:58:27;4.50;99.90
16655;DHT22;8441;51.344;7.022;2023-05-18T03:00:56;4.40;99.90
16655;DHT22;8441;51.344;7.022;2023-05-18T03:03:24;4.40;99.90
16655;DHT22;8441;51.344;7.022;2023-05-18T03:05:53;4.40;99.90
16655;DHT22;8441;51.344;7.022;2023-05-18T03:08:20;4.40;99.90
16655;DHT22;8441;51.344;7.022;2023-05-18T03:10:48;4.40;99.90
16655;DHT22;8441;51.344;7.022;2023-05-18T03:13:15;4.30;99.90
16655;DHT22;8441;51.344;7.022;2023-05-18T03:15:42;4.30;99.90
16655;DHT22;8441;51.344;7.022;2023-05-18T03:18:11;4.30;99.90
16655;DHT22;8441;51.344;7.022;2023-05-18T03:20:39;4.30;99.90
16655;DHT22;8441;51.344;7.022;2023-05-18T03:23:08;4.20;99.90
16655;DHT22;8441;51.344;7.022;2023-05-18T03:25:35;4.20;99.90
16655;DHT22;8441;51.344;7.022;2023-05-18T03:28:03;4.20;99.90
16655;DHT22;8441;51.344;7.022;2023-05-18T03:30:31;4.20;99.90
16655;DHT22;8441;51.344;7.022;2023-05-18T03:32:58;4.20;99.90
16655;DHT22;8441;51.344;7.022;2023-05-18T03:35:26;4.20;99.90
16655;DHT22;8441;51.344;7.022;2023-05-18T03:37:54;4.20;99.90
16655;DHT22;8441;51.344;7.022;2023-05-18T03:40:23;4.20;99.90
16655;DHT22;8441;51.344;7.022;2023-05-18T03:42:50;4.20;99.90
16655;DHT22;8441;51.344;7.022;2023-05-18T03:45:17;4.20;99.90
16655;DHT22;8441;51.344;7.022;2023-05-18T03:47:45;4.20;99.90
16655;DHT22;8441;51.344;7.022;2023-05-18T03:50:12;4.20;99.90
16655;DHT22;8441;51.344;7.022;2023-05-18T03:52:40;4.20;99.90
16655;DHT22;8441;51.344;7.022;2023-05-18T03:55:08;4.20;99.90
16655;DHT22;8441;51.344;7.022;2023-05-18T03:57:36;4.30;99.90
16655;DHT22;8441;51.344;7.022;2023-05-18T04:00:05;4.30;99.90
16655;DHT22;8441;51.344;7.022;2023-05-18T04:02:36;4.30;99.90
16655;DHT22;8441;51.344;7.022;2023-05-18T04:05:04;4.30;99.90
16655;DHT22;8441;51.344;7.022;2023-05-18T04:07:31;4.40;99.90
16655;DHT22;8441;51.344;7.022;2023-05-18T04:09:58;4.40;99.90
16655;DHT22;8441;51.344;7.022;2023-05-18T04:12:26;4.40;99.90
16655;DHT22;8441;51.344;7.022;2023-05-18T04:14:54;4.40;99.90
16655;DHT22;8441;51.344;7.022;2023-05-18T04:17:21;4.50;99.90
16655;DHT22;8441;51.344;7.022;2023-05-18T04:19:49;4.50;99.90
16655;DHT22;8441;51.344;7.022;2023-05-18T04:22:16;4.60;99.90
16655;DHT22;8441;51.344;7.022;2023-05-18T04:24:43;4.60;99.90
16655;DHT22;8441;51.344;7.022;2023-05-18T04:27:12;4.70;99.90
16655;DHT22;8441;51.344;7.022;2023-05-18T04:29:39;4.70;99.90
16655;DHT22;8441;51.344;7.022;2023-05-18T04:32:10;4.70;99.90
16655;DHT22;8441;51.344;7.022;2023-05-18T04:34:37;4.80;99.90
16655;DHT22;8441;51.344;7.022;2023-05-18T04:37:06;4.80;99.90
16655;DHT22;8441;51.344;7.022;2023-05-18T04:39:35;4.90;99.90
16655;DHT22;8441;51.344;7.022;2023-05-18T04:42:04;4.90;99.90
16655;DHT22;8441;51.344;7.022;2023-05-18T04:44:31;5.00;99.90
16655;DHT22;8441;51.344;7.022;2023-05-18T04:46:59;5.10;99.90
16655;DHT22;8441;51.344;7.022;2023-05-18T04:49:28;5.10;99.90
16655;DHT22;8441;51.344;7.022;2023-05-18T04:51:57;5.10;99.90
16655;DHT22;8441;51.344;7.022;2023-05-18T04:54:25;5.20;99.90
16655;DHT22;8441;51.344;7.022;2023-05-18T04:56:52;5.20;99.90
16655;DHT22;8441;51.344;7.022;2023-05-18T04:59:19;5.20;99.90
16655;DHT22;8441;51.344;7.022;2023-05-18T05:01:51;5.30;99.90
16655;DHT22;8441;51.344;7.022;2023-05-18T05:04:19;5.30;99.90
16655;DHT22;8441;51.344;7.022;2023-05-18T05:06:47;5.40;99.90
16655;DHT22;8441;51.344;7.022;2023-05-18T05:09:15;5.40;99.90
16655;DHT22;8441;51.344;7.022;2023-05-18T05:11:42;5.40;99.90
16655;DHT22;8441;51.344;7.022;2023-05-18T05:14:10;5.40;99.90
16655;DHT22;8441;51.344;7.022;2023-05-18T05:16:37;5.40;99.90
16655;DHT22;8441;51.344;7.022;2023-05-18T05:19:05;5.50;99.90
16655;DHT22;8441;51.344;7.022;2023-05-18T05:21:32;5.50;99.90
16655;DHT22;8441;51.344;7.022;2023-05-18T05:24:01;5.60;99.90
16655;DHT22;8441;51.344;7.022;2023-05-18T05:26:30;5.60;99.90
16655;DHT22;8441;51.344;7.022;2023-05-18T05:28:57;5.60;99.90
16655;DHT22;8441;51.344;7.022;2023-05-18T05:31:24;5.70;99.90
16655;DHT22;8441;51.344;7.022;2023-05-18T05:33:51;5.70;99.90
16655;DHT22;8441;51.344;7.022;2023-05-18T05:36:19;5.70;99.90
16655;DHT22;8441;51.344;7.022;2023-05-18T05:38:46;5.80;99.90
16655;DHT22;8441;51.344;7.022;2023-05-18T05:41:15;5.80;99.90
16655;DHT22;8441;51.344;7.022;2023-05-18T05:43:42;5.90;99.90
16655;DHT22;8441;51.344;7.022;2023-05-18T05:46:09;6.00;99.90
16655;DHT22;8441;51.344;7.022;2023-05-18T05:48:36;6.00;99.90
16655;DHT22;8441;51.344;7.022;2023-05-18T05:51:03;6.10;99.90
16655;DHT22;8441;51.344;7.022;2023-05-18T05:53:31;6.20;99.90
16655;DHT22;8441;51.344;7.022;2023-05-18T05:55:58;6.20;99.90
16655;DHT22;8441;51.344;7.022;2023-05-18T05:58:26;6.30;99.90
16655;DHT22;8441;51.344;7.022;2023-05-18T06:00:54;6.40;99.90
16655;DHT22;8441;51.344;7.022;2023-05-18T06:03:21;6.60;99.90
16655;DHT22;8441;51.344;7.022;2023-05-18T06:05:48;6.60;99.90
16655;DHT22;8441;51.344;7.022;2023-05-18T06:08:15;6.70;99.90
16655;DHT22;8441;51.344;7.022;2023-05-18T06:10:43;6.80;99.90
16655;DHT22;8441;51.344;7.022;2023-05-18T06:13:10;6.90;99.90
16655;DHT22;8441;51.344;7.022;2023-05-18T06:15:38;7.20;99.90
16655;DHT22;8441;51.344;7.022;2023-05-18T06:18:05;7.70;99.90
16655;DHT22;8441;51.344;7.022;2023-05-18T06:20:33;8.10;99.90
16655;DHT22;8441;51.344;7.022;2023-05-18T06:23:00;8.10;99.90
16655;DHT22;8441;51.344;7.022;2023-05-18T06:25:27;7.90;99.90
16655;DHT22;8441;51.344;7.022;2023-05-18T06:27:54;7.80;99.90
16655;DHT22;8441;51.344;7.022;2023-05-18T06:30:22;7.70;99.90
16655;DHT22;8441;51.344;7.022;2023-05-18T06:32:50;7.50;99.90
16655;DHT22;8441;51.344;7.022;2023-05-18T06:35:17;7.50;99.90
16655;DHT22;8441;51.344;7.022;2023-05-18T06:37:45;7.60;99.90
16655;DHT22;8441;51.344;7.022;2023-05-18T06:40:12;7.50;99.90
16655;DHT22;8441;51.344;7.022;2023-05-18T06:42:39;7.60;99.90
16655;DHT22;8441;51.344;7.022;2023-05-18T06:45:07;7.60;99.90
16655;DHT22;8441;51.344;7.022;2023-05-18T06:47:34;7.60;99.90
16655;DHT22;8441;51.344;7.022;2023-05-18T06:50:03;7.70;99.90
16655;DHT22;8441;51.344;7.022;2023-05-18T06:52:31;7.80;99.90
16655;DHT22;8441;51.344;7.022;2023-05-18T06:54:58;7.80;99.90
16655;DHT22;8441;51.344;7.022;2023-05-18T06:57:25;7.80;99.90
16655;DHT22;8441;51.344;7.022;2023-05-18T06:59:53;7.80;99.90
16655;DHT22;8441;51.344;7.022;2023-05-18T07:02:20;7.90;99.90
16655;DHT22;8441;51.344;7.022;2023-05-18T07:04:48;8.00;99.90
16655;DHT22;8441;51.344;7.022;2023-05-18T07:07:17;8.10;99.90
16655;DHT22;8441;51.344;7.022;2023-05-18T07:09:45;8.20;99.90
16655;DHT22;8441;51.344;7.022;2023-05-18T07:12:14;8.20;99.90
16655;DHT22;8441;51.344;7.022;2023-05-18T07:14:41;8.20;99.90
16655;DHT22;8441;51.344;7.022;2023-05-18T07:17:09;8.30;99.90
16655;DHT22;8441;51.344;7.022;2023-05-18T07:19:36;8.20;99.90
16655;DHT22;8441;51.344;7.022;2023-05-18T07:22:03;8.40;99.90
16655;DHT22;8441;51.344;7.022;2023-05-18T07:24:33;8.50;99.90
16655;DHT22;8441;51.344;7.022;2023-05-18T07:27:00;8.60;99.90
16655;DHT22;8441;51.344;7.022;2023-05-18T07:29:28;8.70;99.90
16655;DHT22;8441;51.344;7.022;2023-05-18T07:31:56;8.90;99.90
16655;DHT22;8441;51.344;7.022;2023-05-18T07:34:23;9.00;99.90
16655;DHT22;8441;51.344;7.022;2023-05-18T07:36:51;9.10;99.90
16655;DHT22;8441;51.344;7.022;2023-05-18T07:39:19;9.20;99.90
16655;DHT22;8441;51.344;7.022;2023-05-18T07:41:55;9.40;99.90
16655;DHT22;8441;51.344;7.022;2023-05-18T07:44:22;9.60;99.90
16655;DHT22;8441;51.344;7.022;2023-05-18T07:46:50;9.80;99.90
16655;DHT22;8441;51.344;7.022;2023-05-18T07:49:17;9.90;99.90
16655;DHT22;8441;51.344;7.022;2023-05-18T07:51:44;10.20;99.90
16655;DHT22;8441;51.344;7.022;2023-05-18T07:54:11;10.30;99.90
16655;DHT22;8441;51.344;7.022;2023-05-18T07:56:39;10.40;99.90
16655;DHT22;8441;51.344;7.022;2023-05-18T07:59:08;10.40;99.90
16655;DHT22;8441;51.344;7.022;2023-05-18T08:01:36;10.40;99.90
16655;DHT22;8441;51.344;7.022;2023-05-18T08:04:04;10.60;99.90
16655;DHT22;8441;51.344;7.022;2023-05-18T08:06:31;10.80;99.90
16655;DHT22;8441;51.344;7.022;2023-05-18T08:08:58;10.90;99.90
16655;DHT22;8441;51.344;7.022;2023-05-18T08:11:26;11.10;99.90
16655;DHT22;8441;51.344;7.022;2023-05-18T08:13:53;11.00;99.90
16655;DHT22;8441;51.344;7.022;2023-05-18T08:16:22;11.00;99.90
16655;DHT22;8441;51.344;7.022;2023-05-18T08:18:49;11.00;99.90
16655;DHT22;8441;51.344;7.022;2023-05-18T08:21:16;11.10;99.90
16655;DHT22;8441;51.344;7.022;2023-05-18T08:23:45;11.20;99.90
16655;DHT22;8441;51.344;7.022;2023-05-18T08:26:12;11.20;99.90
16655;DHT22;8441;51.344;7.022;2023-05-18T08:28:39;11.30;99.90
16655;DHT22;8441;51.344;7.022;2023-05-18T08:31:07;11.30;99.90
16655;DHT22;8441;51.344;7.022;2023-05-18T08:33:35;11.30;99.90
16655;DHT22;8441;51.344;7.022;2023-05-18T08:36:03;11.50;99.90
16655;DHT22;8441;51.344;7.022;2023-05-18T08:38:30;11.50;99.90
16655;DHT22;8441;51.344;7.022;2023-05-18T08:41:02;11.80;99.90
16655;DHT22;8441;51.344;7.022;2023-05-18T08:43:32;11.90;99.90
16655;DHT22;8441;51.344;7.022;2023-05-18T08:46:05;11.80;99.90
16655;DHT22;8441;51.344;7.022;2023-05-18T08:48:34;11.80;99.90
16655;DHT22;8441;51.344;7.022;2023-05-18T08:51:02;11.80;99.90
16655;DHT22;8441;51.344;7.022;2023-05-18T08:53:32;11.90;99.90
16655;DHT22;8441;51.344;7.022;2023-05-18T08:56:00;12.00;99.90
16655;DHT22;8441;51.344;7.022;2023-05-18T08:58:33;12.10;99.90
16655;DHT22;8441;51.344;7.022;2023-05-18T09:01:02;12.20;99.90
16655;DHT22;8441;51.344;7.022;2023-05-18T09:03:30;12.30;99.90
16655;DHT22;8441;51.344;7.022;2023-05-18T09:05:59;12.10;99.90
16655;DHT22;8441;51.344;7.022;2023-05-18T09:08:28;12.00;99.90
16655;DHT22;8441;51.344;7.022;2023-05-18T09:10:56;12.00;99.90
16655;DHT22;8441;51.344;7.022;2023-05-18T09:13:24;11.80;99.90
16655;DHT22;8441;51.344;7.022;2023-05-18T09:15:51;11.70;99.90
16655;DHT22;8441;51.344;7.022;2023-05-18T09:18:19;11.90;99.90
16655;DHT22;8441;51.344;7.022;2023-05-18T09:20:46;12.10;99.90
16655;DHT22;8441;51.344;7.022;2023-05-18T09:23:15;12.10;99.90
16655;DHT22;8441;51.344;7.022;2023-05-18T09:25:44;12.10;99.90
16655;DHT22;8441;51.344;7.022;2023-05-18T09:28:12;12.10;99.90
16655;DHT22;8441;51.344;7.022;2023-05-18T09:30:40;12.20;99.90
16655;DHT22;8441;51.344;7.022;2023-05-18T09:33:15;12.30;99.90
16655;DHT22;8441;51.344;7.022;2023-05-18T09:35:44;12.40;99.90
16655;DHT22;8441;51.344;7.022;2023-05-18T09:38:12;12.40;99.90
16655;DHT22;8441;51.344;7.022;2023-05-18T09:40:45;12.40;99.90
16655;DHT22;8441;51.344;7.022;2023-05-18T09:43:13;12.40;99.90
16655;DHT22;8441;51.344;7.022;2023-05-18T09:45:44;12.50;99.90
16655;DHT22;8441;51.344;7.022;2023-05-18T09:48:13;12.50;99.90
16655;DHT22;8441;51.344;7.022;2023-05-18T09:50:42;12.50;99.90
16655;DHT22;8441;51.344;7.022;2023-05-18T09:53:10;12.70;99.90
16655;DHT22;8441;51.344;7.022;2023-05-18T09:55:45;12.90;99.90
16655;DHT22;8441;51.344;7.022;2023-05-18T09:58:13;13.00;99.90
16655;DHT22;8441;51.344;7.022;2023-05-18T10:00:42;13.00;99.90
16655;DHT22;8441;51.344;7.022;2023-05-18T10:03:17;12.90;99.90
16655;DHT22;8441;51.344;7.022;2023-05-18T10:05:45;13.20;99.90
16655;DHT22;8441;51.344;7.022;2023-05-18T10:08:13;13.40;99.90
16655;DHT22;8441;51.344;7.022;2023-05-18T10:10:45;13.50;99.90
16655;DHT22;8441;51.344;7.022;2023-05-18T10:13:15;13.50;99.90
16655;DHT22;8441;51.344;7.022;2023-05-18T10:15:48;13.40;99.90
16655;DHT22;8441;51.344;7.022;2023-05-18T10:18:20;13.30;99.90
16655;DHT22;8441;51.344;7.022;2023-05-18T10:20:48;13.40;99.90
16655;DHT22;8441;51.344;7.022;2023-05-18T10:23:17;13.20;99.90
16655;DHT22;8441;51.344;7.022;2023-05-18T10:25:45;13.30;99.90
16655;DHT22;8441;51.344;7.022;2023-05-18T10:28:18;13.30;99.90
16655;DHT22;8441;51.344;7.022;2023-05-18T10:30:50;13.40;99.90
16655;DHT22;8441;51.344;7.022;2023-05-18T10:33:19;13.40;99.90
16655;DHT22;8441;51.344;7.022;2023-05-18T10:35:48;13.60;99.90
16655;DHT22;8441;51.344;7.022;2023-05-18T10:38:18;13.90;99.90
16655;DHT22;8441;51.344;7.022;2023-05-18T10:40:47;14.00;99.90
16655;DHT22;8441;51.344;7.022;2023-05-18T10:43:18;14.00;99.90
16655;DHT22;8441;51.344;7.022;2023-05-18T10:45:47;14.10;99.90
16655;DHT22;8441;51.344;7.022;2023-05-18T10:48:18;14.10;99.90
16655;DHT22;8441;51.344;7.022;2023-05-18T10:50:47;13.90;99.90
16655;DHT22;8441;51.344;7.022;2023-05-18T10:53:17;13.80;99.90
16655;DHT22;8441;51.344;7.022;2023-05-18T10:55:46;14.00;99.90
16655;DHT22;8441;51.344;7.022;2023-05-18T10:58:15;14.00;99.90
16655;DHT22;8441;51.344;7.022;2023-05-18T11:00:47;13.80;99.90
16655;DHT22;8441;51.344;7.022;2023-05-18T11:03:17;13.70;99.90
16655;DHT22;8441;51.344;7.022;2023-05-18T11:05:48;13.60;99.90
16655;DHT22;8441;51.344;7.022;2023-05-18T11:08:24;13.70;99.90
16655;DHT22;8441;51.344;7.022;2023-05-18T11:10:59;13.90;99.90
16655;DHT22;8441;51.344;7.022;2023-05-18T11:13:29;14.10;99.90
16655;DHT22;8441;51.344;7.022;2023-05-18T11:16:08;14.10;99.90
16655;DHT22;8441;51.344;7.022;2023-05-18T11:18:37;14.10;99.90
16655;DHT22;8441;51.344;7.022;2023-05-18T11:21:18;14.30;99.90
16655;DHT22;8441;51.344;7.022;2023-05-18T11:26:55;14.30;99.90
16655;DHT22;8441;51.344;7.022;2023-05-18T11:29:29;14.50;99.90
16655;DHT22;8441;51.344;7.022;2023-05-18T11:31:58;14.60;99.90
16655;DHT22;8441;51.344;7.022;2023-05-18T11:34:38;14.60;99.90
16655;DHT22;8441;51.344;7.022;2023-05-18T11:37:07;14.70;99.90
16655;DHT22;8441;51.344;7.022;2023-05-18T11:39:34;14.70;99.90
16655;DHT22;8441;51.344;7.022;2023-05-18T11:42:05;14.60;99.70
16655;DHT22;8441;51.344;7.022;2023-05-18T11:44:32;14.50;99.90
16655;DHT22;8441;51.344;7.022;2023-05-18T11:47:02;14.50;99.50
16655;DHT22;8441;51.344;7.022;2023-05-18T11:49:31;14.40;99.90
16655;DHT22;8441;51.344;7.022;2023-05-18T11:52:03;14.50;99.90
16655;DHT22;8441;51.344;7.022;2023-05-18T11:54:38;14.70;99.90
16655;DHT22;8441;51.344;7.022;2023-05-18T11:57:06;14.80;99.90
16655;DHT22;8441;51.344;7.022;2023-05-18T11:59:36;14.70;99.90
16655;DHT22;8441;51.344;7.022;2023-05-18T12:02:05;14.80;99.90
16655;DHT22;8441;51.344;7.022;2023-05-18T12:04:44;14.80;99.90
16655;DHT22;8441;51.344;7.022;2023-05-18T12:07:12;14.60;99.60
16655;DHT22;8441;51.344;7.022;2023-05-18T12:09:40;14.40;99.30
16655;DHT22;8441;51.344;7.022;2023-05-18T12:12:10;14.40;99.90
16655;DHT22;8441;51.344;7.022;2023-05-18T12:14:40;14.50;98.80
16655;DHT22;8441;51.344;7.022;2023-05-18T12:17:09;14.70;99.10
16655;DHT22;8441;51.344;7.022;2023-05-18T12:19:40;15.00;99.90
16655;DHT22;8441;51.344;7.022;2023-05-18T12:22:08;15.10;98.80
16655;DHT22;8441;51.344;7.022;2023-05-18T12:24:36;15.10;98.90
16655;DHT22;8441;51.344;7.022;2023-05-18T12:27:05;15.10;98.80
16655;DHT22;8441;51.344;7.022;2023-05-18T12:29:33;15.10;98.70
16655;DHT22;8441;51.344;7.022;2023-05-18T12:32:09;15.00;98.30
16655;DHT22;8441;51.344;7.022;2023-05-18T12:34:37;15.00;97.80
16655;DHT22;8441;51.344;7.022;2023-05-18T12:37:05;14.90;98.60
16655;DHT22;8441;51.344;7.022;2023-05-18T12:39:34;15.10;99.20
16655;DHT22;8441;51.344;7.022;2023-05-18T12:42:08;15.30;98.70
16655;DHT22;8441;51.344;7.022;2023-05-18T12:44:36;15.20;98.10
16655;DHT22;8441;51.344;7.022;2023-05-18T12:47:04;15.10;98.40
16655;DHT22;8441;51.344;7.022;2023-05-18T12:49:36;15.20;99.90
16655;DHT22;8441;51.344;7.022;2023-05-18T12:52:08;15.50;98.80
16655;DHT22;8441;51.344;7.022;2023-05-18T12:54:46;15.40;98.10
16655;DHT22;8441;51.344;7.022;2023-05-18T12:57:15;15.60;98.80
16655;DHT22;8441;51.344;7.022;2023-05-18T12:59:47;15.80;98.70
16655;DHT22;8441;51.344;7.022;2023-05-18T13:02:39;15.60;98.10
16655;DHT22;8441;51.344;7.022;2023-05-18T13:05:09;15.50;98.30
16655;DHT22;8441;51.344;7.022;2023-05-18T13:07:38;15.30;98.10
16655;DHT22;8441;51.344;7.022;2023-05-18T13:10:06;15.40;98.30
16655;DHT22;8441;51.344;7.022;2023-05-18T13:12:44;15.40;97.50
16655;DHT22;8441;51.344;7.022;2023-05-18T13:15:13;15.40;98.20
16655;DHT22;8441;51.344;7.022;2023-05-18T13:17:54;15.50;97.70
16655;DHT22;8441;51.344;7.022;2023-05-18T13:20:29;15.70;98.00
16655;DHT22;8441;51.344;7.022;2023-05-18T13:22:58;15.40;97.20
16655;DHT22;8441;51.344;7.022;2023-05-18T13:25:25;15.40;97.90
16655;DHT22;8441;51.344;7.022;2023-05-18T13:27:52;15.50;98.40
16655;DHT22;8441;51.344;7.022;2023-05-18T13:30:21;15.70;98.30
16655;DHT22;8441;51.344;7.022;2023-05-18T13:32:49;15.70;98.60
16655;DHT22;8441;51.344;7.022;2023-05-18T13:35:17;15.80;97.60
16655;DHT22;8441;51.344;7.022;2023-05-18T13:37:46;15.90;98.20
16655;DHT22;8441;51.344;7.022;2023-05-18T13:40:14;16.00;98.30
16655;DHT22;8441;51.344;7.022;2023-05-18T13:42:43;16.10;98.00
16655;DHT22;8441;51.344;7.022;2023-05-18T13:45:11;16.20;97.90
16655;DHT22;8441;51.344;7.022;2023-05-18T13:47:39;16.30;97.20
16655;DHT22;8441;51.344;7.022;2023-05-18T13:50:08;16.10;97.10
16655;DHT22;8441;51.344;7.022;2023-05-18T13:52:36;16.00;97.30
16655;DHT22;8441;51.344;7.022;2023-05-18T13:55:06;15.90;97.70
16655;DHT22;8441;51.344;7.022;2023-05-18T13:57:33;16.10;97.70
16655;DHT22;8441;51.344;7.022;2023-05-18T14:00:01;16.20;97.60
16655;DHT22;8441;51.344;7.022;2023-05-18T14:02:35;16.40;97.10
16655;DHT22;8441;51.344;7.022;2023-05-18T14:05:02;16.40;98.40
16655;DHT22;8441;51.344;7.022;2023-05-18T14:07:30;16.40;96.90
16655;DHT22;8441;51.344;7.022;2023-05-18T14:09:57;16.20;96.30
16655;DHT22;8441;51.344;7.022;2023-05-18T14:12:25;16.10;96.90
16655;DHT22;8441;51.344;7.022;2023-05-18T14:14:53;16.20;96.40
16655;DHT22;8441;51.344;7.022;2023-05-18T14:17:20;16.40;97.00
16655;DHT22;8441;51.344;7.022;2023-05-18T14:19:47;16.60;97.60
16655;DHT22;8441;51.344;7.022;2023-05-18T14:22:14;16.60;96.60
16655;DHT22;8441;51.344;7.022;2023-05-18T14:24:43;16.80;97.80
16655;DHT22;8441;51.344;7.022;2023-05-18T14:27:10;16.80;96.30
16655;DHT22;8441;51.344;7.022;2023-05-18T14:29:38;16.60;96.40
16655;DHT22;8441;51.344;7.022;2023-05-18T14:32:07;16.60;95.80
16655;DHT22;8441;51.344;7.022;2023-05-18T14:34:34;16.40;96.10
16655;DHT22;8441;51.344;7.022;2023-05-18T14:37:01;16.20;96.40
16655;DHT22;8441;51.344;7.022;2023-05-18T14:39:28;16.20;96.20
16655;DHT22;8441;51.344;7.022;2023-05-18T14:41:56;16.20;96.00
16655;DHT22;8441;51.344;7.022;2023-05-18T14:44:23;16.40;97.60
16655;DHT22;8441;51.344;7.022;2023-05-18T14:46:52;16.60;96.80
16655;DHT22;8441;51.344;7.022;2023-05-18T14:49:19;16.70;96.20
16655;DHT22;8441;51.344;7.022;2023-05-18T14:51:47;16.50;95.90
16655;DHT22;8441;51.344;7.022;2023-05-18T14:54:14;16.40;96.20
16655;DHT22;8441;51.344;7.022;2023-05-18T14:56:43;16.50;97.20
16655;DHT22;8441;51.344;7.022;2023-05-18T14:59:10;16.70;96.30
16655;DHT22;8441;51.344;7.022;2023-05-18T15:01:38;16.80;96.30
16655;DHT22;8441;51.344;7.022;2023-05-18T15:04:07;16.90;96.80
16655;DHT22;8441;51.344;7.022;2023-05-18T15:06:34;17.10;96.20
16655;DHT22;8441;51.344;7.022;2023-05-18T15:09:02;17.30;95.20
16655;DHT22;8441;51.344;7.022;2023-05-18T15:11:31;16.90;95.00
16655;DHT22;8441;51.344;7.022;2023-05-18T15:13:58;16.70;95.90
16655;DHT22;8441;51.344;7.022;2023-05-18T15:16:25;16.80;95.40
16655;DHT22;8441;51.344;7.022;2023-05-18T15:18:52;16.80;94.90
16655;DHT22;8441;51.344;7.022;2023-05-18T15:21:21;16.70;95.40
16655;DHT22;8441;51.344;7.022;2023-05-18T15:23:48;16.80;95.70
16655;DHT22;8441;51.344;7.022;2023-05-18T15:26:15;17.00;95.60
16655;DHT22;8441;51.344;7.022;2023-05-18T15:28:42;17.10;94.80
16655;DHT22;8441;51.344;7.022;2023-05-18T15:31:12;16.70;94.30
16655;DHT22;8441;51.344;7.022;2023-05-18T15:33:39;16.60;94.20
16655;DHT22;8441;51.344;7.022;2023-05-18T15:36:08;16.80;95.90
16655;DHT22;8441;51.344;7.022;2023-05-18T15:38:36;17.00;94.60
16655;DHT22;8441;51.344;7.022;2023-05-18T15:41:04;17.20;94.60
16655;DHT22;8441;51.344;7.022;2023-05-18T15:43:33;17.30;94.30
16655;DHT22;8441;51.344;7.022;2023-05-18T15:46:01;17.40;94.70
16655;DHT22;8441;51.344;7.022;2023-05-18T15:48:28;17.30;93.90
16655;DHT22;8441;51.344;7.022;2023-05-18T15:50:55;17.20;94.30
16655;DHT22;8441;51.344;7.022;2023-05-18T15:53:23;17.00;94.10
16655;DHT22;8441;51.344;7.022;2023-05-18T15:55:51;17.10;94.20
16655;DHT22;8441;51.344;7.022;2023-05-18T15:58:20;17.20;94.40
16655;DHT22;8441;51.344;7.022;2023-05-18T16:00:47;17.10;93.90
16655;DHT22;8441;51.344;7.022;2023-05-18T16:03:14;16.80;94.60
16655;DHT22;8441;51.344;7.022;2023-05-18T16:05:42;16.90;94.30
16655;DHT22;8441;51.344;7.022;2023-05-18T16:08:10;16.90;93.80